createdAt,value
2023-02-24T00:00:47.286Z,22.50
2023-02-24T00:01:46.002Z,22.00
2023-02-24T00:02:46.059Z,24.90
2023-02-24T00:03:46.063Z,23.30
2023-02-24T00:04:45.953Z,20.40
2023-02-24T00:05:45.971Z,21.90
2023-02-24T00:06:45.939Z,24.10
2023-02-24T00:07:46.014Z,19.20
2023-02-24T00:08:45.895Z,19.70
2023-02-24T00:09:45.908Z,22.00
2023-02-24T00:10:45.969Z,20.30
2023-02-24T00:11:46.016Z,19.50
2023-02-24T00:12:45.846Z,22.60
2023-02-24T00:13:45.851Z,19.70
2023-02-24T00:14:45.833Z,22.70
2023-02-24T00:15:45.830Z,18.50
2023-02-24T00:16:45.886Z,21.60
2023-02-24T00:17:45.892Z,20.40
2023-02-24T00:18:45.806Z,22.90
2023-02-24T00:19:45.775Z,24.30
2023-02-24T00:20:45.754Z,22.50
2023-02-24T00:21:45.787Z,22.50
2023-02-24T00:22:45.732Z,17.50
2023-02-24T00:23:45.749Z,20.80
2023-02-24T00:24:45.718Z,19.60
2023-02-24T00:25:45.697Z,19.90
2023-02-24T00:26:45.719Z,18.00
2023-02-24T00:27:45.676Z,21.00
2023-02-24T00:28:45.674Z,18.10
2023-02-24T00:29:45.677Z,20.40
2023-02-24T00:30:45.664Z,18.30
2023-02-24T00:31:45.829Z,18.80
2023-02-24T00:32:45.748Z,20.50
2023-02-24T00:33:45.693Z,18.40
2023-02-24T00:34:45.618Z,15.20
2023-02-24T00:35:45.662Z,17.20
2023-02-24T00:36:45.603Z,18.40
2023-02-24T00:37:45.565Z,18.00
2023-02-24T00:38:45.554Z,15.70
2023-02-24T00:39:45.600Z,18.30
2023-02-24T00:40:45.531Z,19.20
2023-02-24T00:41:45.561Z,19.00
2023-02-24T00:42:45.506Z,16.10
2023-02-24T00:43:45.534Z,17.10
2023-02-24T00:44:45.514Z,18.60
2023-02-24T00:45:45.491Z,18.80
2023-02-24T00:46:45.481Z,17.60
2023-02-24T00:47:45.486Z,14.70
2023-02-24T00:48:45.449Z,16.90
2023-02-24T00:49:45.441Z,19.70
2023-02-24T00:50:45.419Z,16.10
2023-02-24T00:51:45.420Z,15.60
2023-02-24T00:52:45.435Z,16.20
2023-02-24T00:53:45.388Z,15.70
2023-02-24T00:54:45.371Z,15.20
2023-02-24T00:55:45.365Z,15.00
2023-02-24T00:56:45.422Z,14.90
2023-02-24T00:57:45.373Z,16.00
2023-02-24T00:58:45.390Z,14.10
2023-02-24T00:59:45.325Z,14.50
2023-02-24T01:00:45.321Z,15.00
2023-02-24T01:01:45.424Z,14.90
2023-02-24T01:02:45.292Z,16.20
2023-02-24T01:03:45.339Z,19.30
2023-02-24T01:04:45.311Z,16.90
2023-02-24T01:05:45.264Z,15.80
2023-02-24T01:06:45.331Z,14.50
2023-02-24T01:07:45.232Z,15.10
2023-02-24T01:08:45.281Z,16.40
2023-02-24T01:09:45.236Z,13.60
2023-02-24T01:10:45.219Z,17.60
2023-02-24T01:11:45.276Z,15.20
2023-02-24T01:12:45.195Z,15.10
2023-02-24T01:13:45.161Z,11.10
2023-02-24T01:14:45.162Z,14.20
2023-02-24T01:15:45.182Z,12.50
2023-02-24T01:16:45.176Z,14.00
2023-02-24T01:17:45.128Z,12.60
2023-02-24T01:18:45.106Z,13.00
2023-02-24T01:19:45.085Z,14.90
2023-02-24T01:20:45.082Z,12.50
2023-02-24T01:21:45.096Z,15.40
2023-02-24T01:22:45.793Z,14.70
2023-02-24T01:23:45.033Z,11.90
2023-02-24T01:24:45.046Z,12.90
2023-02-24T01:25:45.016Z,12.40
2023-02-24T01:26:45.024Z,13.10
2023-02-24T01:27:45.040Z,14.30
2023-02-24T01:28:44.993Z,13.30
2023-02-24T01:29:44.986Z,11.10
2023-02-24T01:30:44.994Z,12.40
2023-02-24T01:31:46.777Z,14.80
2023-02-24T01:32:45.078Z,15.50
2023-02-24T01:33:44.978Z,12.10
2023-02-24T01:34:44.947Z,12.90
2023-02-24T01:35:44.905Z,15.00
2023-02-24T01:36:44.926Z,11.40
2023-02-24T01:37:44.893Z,11.30
2023-02-24T01:38:44.870Z,10.30
2023-02-24T01:39:44.917Z,9.80
2023-02-24T01:40:44.847Z,12.30
2023-02-24T01:41:44.842Z,11.90
2023-02-24T01:42:44.836Z,10.50
2023-02-24T01:43:44.817Z,12.90
2023-02-24T01:44:44.799Z,12.20
2023-02-24T01:45:44.842Z,11.30
2023-02-24T01:46:44.864Z,13.40
2023-02-24T01:47:44.777Z,12.10
2023-02-24T01:48:44.761Z,11.70
2023-02-24T01:49:44.768Z,12.00
2023-02-24T01:50:44.752Z,11.30
2023-02-24T01:51:44.741Z,10.40
2023-02-24T01:52:44.722Z,12.90
2023-02-24T01:53:44.715Z,11.20
2023-02-24T01:54:44.752Z,11.60
2023-02-24T01:55:44.683Z,9.80
2023-02-24T01:56:44.662Z,12.30
2023-02-24T01:57:44.696Z,12.10
2023-02-24T01:58:44.654Z,12.10
2023-02-24T01:59:44.633Z,12.70
2023-02-24T02:00:44.614Z,11.10
2023-02-24T02:01:44.781Z,13.80
2023-02-24T02:02:44.769Z,12.80
2023-02-24T02:03:44.613Z,12.00
2023-02-24T02:04:44.575Z,12.00
2023-02-24T02:05:44.565Z,10.80
2023-02-24T02:06:44.634Z,10.30
2023-02-24T02:07:44.544Z,9.70
2023-02-24T02:08:44.535Z,12.60
2023-02-24T02:09:44.536Z,9.40
2023-02-24T02:10:44.507Z,12.00
2023-02-24T02:11:44.496Z,10.60
2023-02-24T02:12:44.912Z,9.10
2023-02-24T02:13:44.590Z,10.30
2023-02-24T02:14:44.477Z,9.50
2023-02-24T02:15:44.456Z,10.30
2023-02-24T02:16:44.457Z,14.10
2023-02-24T02:17:44.427Z,9.60
2023-02-24T02:18:44.462Z,10.00
2023-02-24T02:19:44.502Z,10.50
2023-02-24T02:20:44.407Z,11.10
2023-02-24T02:21:44.402Z,11.40
2023-02-24T02:22:44.380Z,10.40
2023-02-24T02:23:44.364Z,12.10
2023-02-24T02:24:44.358Z,10.10
2023-02-24T02:25:44.347Z,10.20
2023-02-24T02:26:44.343Z,10.40
2023-02-24T02:27:44.323Z,13.70
2023-02-24T02:28:44.309Z,11.70
2023-02-24T02:29:44.301Z,12.00
2023-02-24T02:30:44.302Z,9.90
2023-02-24T02:31:44.517Z,13.80
2023-02-24T02:32:44.369Z,9.60
2023-02-24T02:33:44.259Z,10.10
2023-02-24T02:34:44.229Z,11.10
2023-02-24T02:35:44.232Z,10.70
2023-02-24T02:36:44.231Z,13.80
2023-02-24T02:37:44.203Z,13.80
2023-02-24T02:38:44.198Z,11.70
2023-02-24T02:39:44.184Z,11.80
2023-02-24T02:40:44.193Z,10.20
2023-02-24T02:41:44.165Z,10.90
2023-02-24T02:42:44.151Z,10.30
2023-02-24T02:43:44.151Z,10.30
2023-02-24T02:44:44.199Z,11.80
2023-02-24T02:45:44.123Z,12.80
2023-02-24T02:46:44.144Z,11.50
2023-02-24T02:47:44.094Z,11.80
2023-02-24T02:48:44.106Z,9.70
2023-02-24T02:49:44.118Z,10.80
2023-02-24T02:50:44.097Z,12.40
2023-02-24T02:51:44.072Z,10.70
2023-02-24T02:52:44.036Z,11.40
2023-02-24T02:53:44.010Z,12.30
2023-02-24T02:54:44.006Z,10.40
2023-02-24T02:55:44.016Z,9.80
2023-02-24T02:56:43.976Z,13.00
2023-02-24T02:57:43.980Z,10.50
2023-02-24T02:58:43.957Z,11.70
2023-02-24T02:59:43.941Z,13.10
2023-02-24T03:00:43.939Z,10.10
2023-02-24T03:01:43.940Z,10.60
2023-02-24T03:02:43.915Z,9.90
2023-02-24T03:03:43.902Z,10.90
2023-02-24T03:04:43.922Z,11.40
2023-02-24T03:05:43.896Z,12.50
2023-02-24T03:06:43.873Z,11.20
2023-02-24T03:07:43.891Z,12.70
2023-02-24T03:08:43.926Z,13.60
2023-02-24T03:09:43.914Z,9.50
2023-02-24T03:10:43.856Z,10.30
2023-02-24T03:11:43.816Z,10.00
2023-02-24T03:12:43.867Z,10.40
2023-02-24T03:13:43.794Z,12.20
2023-02-24T03:14:43.825Z,13.30
2023-02-24T03:15:43.757Z,12.10
2023-02-24T03:16:43.847Z,11.00
2023-02-24T03:17:43.767Z,11.20
2023-02-24T03:18:43.820Z,10.90
2023-02-24T03:19:43.725Z,12.60
2023-02-24T03:20:43.720Z,13.50
2023-02-24T03:21:43.920Z,11.10
2023-02-24T03:22:43.678Z,10.40
2023-02-24T03:23:43.701Z,13.00
2023-02-24T03:24:43.775Z,11.90
2023-02-24T03:25:43.651Z,13.50
2023-02-24T03:26:43.668Z,10.70
2023-02-24T03:27:43.621Z,14.50
2023-02-24T03:28:43.625Z,15.10
2023-02-24T03:29:43.685Z,14.20
2023-02-24T03:30:43.645Z,12.40
2023-02-24T03:31:43.742Z,12.90
2023-02-24T03:32:43.811Z,15.40
2023-02-24T03:33:43.589Z,16.00
2023-02-24T03:34:43.586Z,14.30
2023-02-24T03:35:43.555Z,15.60
2023-02-24T03:36:43.572Z,15.20
2023-02-24T03:37:43.515Z,15.50
2023-02-24T03:38:43.524Z,17.40
2023-02-24T03:39:43.572Z,18.90
2023-02-24T03:40:43.559Z,18.80
2023-02-24T03:41:43.490Z,19.20
2023-02-24T03:42:43.452Z,17.30
2023-02-24T03:43:43.512Z,19.70
2023-02-24T03:44:43.433Z,17.00
2023-02-24T03:45:43.444Z,17.80
2023-02-24T03:46:43.480Z,23.30
2023-02-24T03:47:43.408Z,17.10
2023-02-24T03:48:43.402Z,16.40
2023-02-24T03:49:43.375Z,18.40
2023-02-24T03:50:43.365Z,18.50
2023-02-24T03:51:43.364Z,16.80
2023-02-24T03:52:43.406Z,20.80
2023-02-24T03:53:43.347Z,18.90
2023-02-24T03:54:43.349Z,17.80
2023-02-24T03:55:43.304Z,18.50
2023-02-24T03:56:43.298Z,19.90
2023-02-24T03:57:43.304Z,16.80
2023-02-24T03:58:43.288Z,17.40
2023-02-24T03:59:43.256Z,17.30
2023-02-24T04:00:43.244Z,22.30
2023-02-24T04:01:43.235Z,19.20
2023-02-24T04:02:43.249Z,19.50
2023-02-24T04:03:43.207Z,17.50
2023-02-24T04:04:43.245Z,18.30
2023-02-24T04:05:43.185Z,15.40
2023-02-24T04:06:43.176Z,16.80
2023-02-24T04:07:43.155Z,18.00
2023-02-24T04:08:43.165Z,17.80
2023-02-24T04:09:43.162Z,16.20
2023-02-24T04:10:43.126Z,16.90
2023-02-24T04:11:43.106Z,17.40
2023-02-24T04:12:43.202Z,16.90
2023-02-24T04:13:43.098Z,18.10
2023-02-24T04:14:43.085Z,16.80
2023-02-24T04:15:43.132Z,17.70
2023-02-24T04:16:43.080Z,15.90
2023-02-24T04:17:43.052Z,20.20
2023-02-24T04:18:43.028Z,21.70
2023-02-24T04:19:43.016Z,18.70
2023-02-24T04:20:43.018Z,16.50
2023-02-24T04:21:43.040Z,17.20
2023-02-24T04:22:42.991Z,18.00
2023-02-24T04:23:42.980Z,15.40
2023-02-24T04:24:42.993Z,19.40
2023-02-24T04:25:43.026Z,16.10
2023-02-24T04:26:42.950Z,17.50
2023-02-24T04:27:42.959Z,15.50
2023-02-24T04:28:42.932Z,15.70
2023-02-24T04:29:42.900Z,17.30
2023-02-24T04:30:42.990Z,17.70
2023-02-24T04:31:43.128Z,18.80
2023-02-24T04:32:43.021Z,17.60
2023-02-24T04:33:42.870Z,18.80
2023-02-24T04:34:42.875Z,17.70
2023-02-24T04:35:42.842Z,18.10
2023-02-24T04:36:42.832Z,18.10
2023-02-24T04:37:42.866Z,21.00
2023-02-24T04:38:42.841Z,20.30
2023-02-24T04:39:42.815Z,18.10
2023-02-24T04:40:42.945Z,19.80
2023-02-24T04:41:42.770Z,17.30
2023-02-24T04:42:42.772Z,17.00
2023-02-24T04:43:42.752Z,16.60
2023-02-24T04:44:42.801Z,20.60
2023-02-24T04:45:42.720Z,16.10
2023-02-24T04:46:42.883Z,19.20
2023-02-24T04:47:42.741Z,19.60
2023-02-24T04:48:42.705Z,16.60
2023-02-24T04:49:42.742Z,18.00
2023-02-24T04:50:42.671Z,21.80
2023-02-24T04:51:42.694Z,19.50
2023-02-24T04:52:42.683Z,22.10
2023-02-24T04:53:42.643Z,19.70
2023-02-24T04:54:42.639Z,18.90
2023-02-24T04:55:42.646Z,18.30
2023-02-24T04:56:42.612Z,22.60
2023-02-24T04:57:42.594Z,16.60
2023-02-24T04:58:42.628Z,21.30
2023-02-24T04:59:42.587Z,20.80
2023-02-24T05:00:42.607Z,21.30
2023-02-24T05:01:42.598Z,20.20
2023-02-24T05:02:42.564Z,20.10
2023-02-24T05:03:42.764Z,23.80
2023-02-24T05:04:42.571Z,20.50
2023-02-24T05:05:42.512Z,18.50
2023-02-24T05:06:42.503Z,16.40
2023-02-24T05:07:42.525Z,20.20
2023-02-24T05:08:42.479Z,22.00
2023-02-24T05:09:42.480Z,22.50
2023-02-24T05:10:42.459Z,22.70
2023-02-24T05:11:42.452Z,22.10
2023-02-24T05:12:42.418Z,20.80
2023-02-24T05:13:42.437Z,21.90
2023-02-24T05:14:42.399Z,21.70
2023-02-24T05:15:42.435Z,23.00
2023-02-24T05:16:42.397Z,19.60
2023-02-24T05:17:42.368Z,22.20
2023-02-24T05:18:42.369Z,21.90
2023-02-24T05:19:42.392Z,22.90
2023-02-24T05:20:42.334Z,19.90
2023-02-24T05:21:42.370Z,22.50
2023-02-24T05:22:42.309Z,21.70
2023-02-24T05:23:42.319Z,23.70
2023-02-24T05:24:42.299Z,20.10
2023-02-24T05:25:42.299Z,19.90
2023-02-24T05:26:42.261Z,23.80
2023-02-24T05:27:42.282Z,21.90
2023-02-24T05:28:42.249Z,22.40
2023-02-24T05:29:42.269Z,21.10
2023-02-24T05:30:42.302Z,20.30
2023-02-24T05:31:42.259Z,18.40
2023-02-24T05:32:42.248Z,18.50
2023-02-24T05:33:42.194Z,22.30
2023-02-24T05:34:42.183Z,20.30
2023-02-24T05:35:42.161Z,21.40
2023-02-24T05:36:42.171Z,26.60
2023-02-24T05:37:42.156Z,23.60
2023-02-24T05:38:42.119Z,22.40
2023-02-24T05:39:42.130Z,21.90
2023-02-24T05:40:42.120Z,19.00
2023-02-24T05:41:42.393Z,21.50
2023-02-24T05:42:42.101Z,22.50
2023-02-24T05:43:42.100Z,20.50
2023-02-24T05:44:42.089Z,21.10
2023-02-24T05:45:42.040Z,23.10
2023-02-24T05:46:42.116Z,19.00
2023-02-24T05:47:42.024Z,23.00
2023-02-24T05:48:42.022Z,23.50
2023-02-24T05:49:42.016Z,23.20
2023-02-24T05:50:42.003Z,19.80
2023-02-24T05:51:41.978Z,21.70
2023-02-24T05:52:41.975Z,20.90
2023-02-24T05:53:41.960Z,24.70
2023-02-24T05:54:41.992Z,21.30
2023-02-24T05:55:41.929Z,23.80
2023-02-24T05:56:41.911Z,23.40
2023-02-24T05:57:42.051Z,22.60
2023-02-24T05:58:41.896Z,22.10
2023-02-24T05:59:41.928Z,21.30
2023-02-24T06:00:41.870Z,20.40
2023-02-24T06:01:41.949Z,23.40
2023-02-24T06:02:41.895Z,26.90
2023-02-24T06:03:41.830Z,21.60
2023-02-24T06:04:41.820Z,20.80
2023-02-24T06:05:42.040Z,22.20
2023-02-24T06:06:41.820Z,22.40
2023-02-24T06:07:41.812Z,26.20
2023-02-24T06:08:41.781Z,21.90
2023-02-24T06:09:41.789Z,23.60
2023-02-24T06:10:41.788Z,23.80
2023-02-24T06:11:41.820Z,22.80
2023-02-24T06:12:41.738Z,22.50
2023-02-24T06:13:41.738Z,24.70
2023-02-24T06:14:41.713Z,27.80
2023-02-24T06:15:41.757Z,24.90
2023-02-24T06:16:41.719Z,26.10
2023-02-24T06:17:41.684Z,22.00
2023-02-24T06:18:41.662Z,21.60
2023-02-24T06:19:41.675Z,21.70
2023-02-24T06:20:41.643Z,23.50
2023-02-24T06:21:41.656Z,23.70
2023-02-24T06:22:41.653Z,24.50
2023-02-24T06:23:41.609Z,26.20
2023-02-24T06:24:41.634Z,21.80
2023-02-24T06:25:41.585Z,27.00
2023-02-24T06:26:41.586Z,24.40
2023-02-24T06:27:41.565Z,29.40
2023-02-24T06:28:41.574Z,24.00
2023-02-24T06:29:41.549Z,24.30
2023-02-24T06:30:41.542Z,28.40
2023-02-24T06:31:41.668Z,27.00
2023-02-24T06:32:41.821Z,25.30
2023-02-24T06:33:41.564Z,28.90
2023-02-24T06:34:41.486Z,29.80
2023-02-24T06:35:41.469Z,30.20
2023-02-24T06:36:41.459Z,29.20
2023-02-24T06:37:41.453Z,26.90
2023-02-24T06:38:41.453Z,26.60
2023-02-24T06:39:41.461Z,27.70
2023-02-24T06:40:41.424Z,30.40
2023-02-24T06:41:41.406Z,27.40
2023-02-24T06:42:41.662Z,29.30
2023-02-24T06:43:41.385Z,32.70
2023-02-24T06:44:41.437Z,31.40
2023-02-24T06:45:41.549Z,36.20
2023-02-24T06:46:41.379Z,34.60
2023-02-24T06:47:41.340Z,31.30
2023-02-24T06:48:41.345Z,30.30
2023-02-24T06:49:41.310Z,31.50
2023-02-24T06:50:42.200Z,35.10
2023-02-24T06:51:41.423Z,31.40
2023-02-24T06:52:41.284Z,33.70
2023-02-24T06:53:41.272Z,33.60
2023-02-24T06:54:41.263Z,31.70
2023-02-24T06:55:41.254Z,33.50
2023-02-24T06:56:41.257Z,29.80
2023-02-24T06:57:41.230Z,33.60
2023-02-24T06:58:41.295Z,29.50
2023-02-24T06:59:41.231Z,32.00
2023-02-24T07:00:41.242Z,32.10
2023-02-24T07:01:41.283Z,31.20
2023-02-24T07:02:41.187Z,30.20
2023-02-24T07:03:41.143Z,30.30
2023-02-24T07:04:41.241Z,31.00
2023-02-24T07:05:41.138Z,26.80
2023-02-24T07:06:41.121Z,29.70
2023-02-24T07:07:41.145Z,31.00
2023-02-24T07:08:41.105Z,34.70
2023-02-24T07:09:41.090Z,27.10
2023-02-24T07:10:41.075Z,29.90
2023-02-24T07:11:41.053Z,28.20
2023-02-24T07:12:41.095Z,28.20
2023-02-24T07:13:41.066Z,30.90
2023-02-24T07:14:41.047Z,32.60
2023-02-24T07:15:41.436Z,29.00
2023-02-24T07:16:41.070Z,32.90
2023-02-24T07:17:40.998Z,29.30
2023-02-24T07:18:41.022Z,29.50
2023-02-24T07:19:41.006Z,31.10
2023-02-24T07:20:41.030Z,30.20
2023-02-24T07:21:40.946Z,29.00
2023-02-24T07:22:40.966Z,30.20
2023-02-24T07:23:41.030Z,32.80
2023-02-24T07:24:40.903Z,30.20
2023-02-24T07:25:40.930Z,27.30
2023-02-24T07:26:40.887Z,31.50
2023-02-24T07:27:40.900Z,29.50
2023-02-24T07:28:40.879Z,26.20
2023-02-24T07:29:40.848Z,29.20
2023-02-24T07:30:41.025Z,31.00
2023-02-24T07:31:40.920Z,27.70
2023-02-24T07:32:40.846Z,26.60
2023-02-24T07:33:40.809Z,26.80
2023-02-24T07:34:41.009Z,32.60
2023-02-24T07:35:41.583Z,27.50
2023-02-24T07:36:40.861Z,31.30
2023-02-24T07:37:40.778Z,25.70
2023-02-24T07:38:40.768Z,31.80
2023-02-24T07:39:40.754Z,28.90
2023-02-24T07:40:40.768Z,24.90
2023-02-24T07:41:40.705Z,30.00
2023-02-24T07:42:40.724Z,23.50
2023-02-24T07:43:40.685Z,28.40
2023-02-24T07:44:40.743Z,24.70
2023-02-24T07:45:40.744Z,28.70
2023-02-24T07:46:40.680Z,27.40
2023-02-24T07:47:40.678Z,28.50
2023-02-24T07:48:40.831Z,28.70
2023-02-24T07:49:40.619Z,32.20
2023-02-24T07:50:40.618Z,26.10
2023-02-24T07:51:40.597Z,26.80
2023-02-24T07:52:40.707Z,27.60
2023-02-24T07:53:40.588Z,31.50
2023-02-24T07:54:40.593Z,27.00
2023-02-24T07:55:40.618Z,27.40
2023-02-24T07:56:40.526Z,24.80
2023-02-24T07:57:40.533Z,28.80
2023-02-24T07:58:40.525Z,25.90
2023-02-24T07:59:40.515Z,23.90
2023-02-24T08:00:40.496Z,31.90
2023-02-24T08:01:40.485Z,26.30
2023-02-24T08:02:40.671Z,27.30
2023-02-24T08:03:40.466Z,28.90
2023-02-24T08:04:40.486Z,27.70
2023-02-24T08:05:40.468Z,27.50
2023-02-24T08:06:40.434Z,27.30
2023-02-24T08:07:40.416Z,27.50
2023-02-24T08:08:40.385Z,26.20
2023-02-24T08:09:40.429Z,23.70
2023-02-24T08:10:40.411Z,27.70
2023-02-24T08:11:40.360Z,24.10
2023-02-24T08:12:40.348Z,24.10
2023-02-24T08:13:40.338Z,26.50
2023-02-24T08:14:40.318Z,25.90
2023-02-24T08:15:40.430Z,23.70
2023-02-24T08:16:40.357Z,25.00
2023-02-24T08:17:40.296Z,25.50
2023-02-24T08:18:40.278Z,24.30
2023-02-24T08:19:40.275Z,22.20
2023-02-24T08:20:40.274Z,24.40
2023-02-24T08:21:40.326Z,20.90
2023-02-24T08:22:40.336Z,20.90
2023-02-24T08:23:40.220Z,23.40
2023-02-24T08:24:40.214Z,22.60
2023-02-24T08:25:40.568Z,23.30
2023-02-24T08:26:40.197Z,22.40
2023-02-24T08:27:40.294Z,22.10
2023-02-24T08:28:40.170Z,20.70
2023-02-24T08:29:40.212Z,25.20
2023-02-24T08:30:40.687Z,23.40
2023-02-24T08:31:40.273Z,21.80
2023-02-24T08:32:40.212Z,22.50
2023-02-24T08:33:40.147Z,21.90
2023-02-24T08:34:40.144Z,22.40
2023-02-24T08:35:40.184Z,22.10
2023-02-24T08:36:40.060Z,19.60
2023-02-24T08:37:40.054Z,21.30
2023-02-24T08:38:40.325Z,20.70
2023-02-24T08:39:40.052Z,22.40
2023-02-24T08:40:40.075Z,18.10
2023-02-24T08:41:40.117Z,19.40
2023-02-24T08:42:39.993Z,20.60
2023-02-24T08:43:40.035Z,18.20
2023-02-24T08:44:42.210Z,20.80
2023-02-24T08:45:39.992Z,19.20
2023-02-24T08:46:40.021Z,19.40
2023-02-24T08:47:39.948Z,17.60
2023-02-24T08:48:39.926Z,18.80
2023-02-24T08:49:39.919Z,21.00
2023-02-24T08:50:39.953Z,16.90
2023-02-24T08:51:39.957Z,18.60
2023-02-24T08:52:39.898Z,18.40
2023-02-24T08:53:39.888Z,19.00
2023-02-24T08:54:39.886Z,16.50
2023-02-24T08:55:39.855Z,16.90
2023-02-24T08:56:39.870Z,15.90
2023-02-24T08:57:39.865Z,15.10
2023-02-24T08:58:39.830Z,19.50
2023-02-24T08:59:39.899Z,13.50
2023-02-24T09:00:39.922Z,17.30
2023-02-24T09:01:39.847Z,15.70
2023-02-24T09:02:39.763Z,16.60
2023-02-24T09:03:39.767Z,15.00
2023-02-24T09:04:39.799Z,16.50
2023-02-24T09:05:39.787Z,15.40
2023-02-24T09:06:39.717Z,14.80
2023-02-24T09:07:39.716Z,14.30
2023-02-24T09:08:39.742Z,13.90
2023-02-24T09:09:39.693Z,15.70
2023-02-24T09:10:39.959Z,16.80
2023-02-24T09:11:39.673Z,14.80
2023-02-24T09:12:39.691Z,17.10
2023-02-24T09:13:39.647Z,14.20
2023-02-24T09:14:39.688Z,14.70
2023-02-24T09:15:39.639Z,14.80
2023-02-24T09:16:39.643Z,14.50
2023-02-24T09:17:39.662Z,15.50
2023-02-24T09:18:39.607Z,14.10
2023-02-24T09:19:39.696Z,14.60
2023-02-24T09:20:39.602Z,14.20
2023-02-24T09:21:39.564Z,13.90
2023-02-24T09:22:39.545Z,16.00
2023-02-24T09:23:39.542Z,16.10
2023-02-24T09:24:39.600Z,14.30
2023-02-24T09:25:39.550Z,14.10
2023-02-24T09:26:39.536Z,15.20
2023-02-24T09:27:39.477Z,12.70
2023-02-24T09:28:39.529Z,14.50
2023-02-24T09:29:39.485Z,12.60
2023-02-24T09:30:39.684Z,12.50
2023-02-24T09:31:39.523Z,11.80
2023-02-24T09:32:39.539Z,13.30
2023-02-24T09:33:39.778Z,13.60
2023-02-24T09:34:39.407Z,11.20
2023-02-24T09:35:39.447Z,11.90
2023-02-24T09:36:41.198Z,12.50
2023-02-24T09:37:39.367Z,11.00
2023-02-24T09:38:39.366Z,11.60
2023-02-24T09:39:39.346Z,13.00
2023-02-24T09:40:39.463Z,12.50
2023-02-24T09:41:39.332Z,9.70
2023-02-24T09:42:39.341Z,11.50
2023-02-24T09:43:39.358Z,10.90
2023-02-24T09:44:39.303Z,10.60
2023-02-24T09:45:39.412Z,11.20
2023-02-24T09:46:39.362Z,11.30
2023-02-24T09:47:39.258Z,10.90
2023-02-24T09:48:39.255Z,9.90
2023-02-24T09:49:39.261Z,8.20
2023-02-24T09:51:01.532Z,9.30
2023-02-24T09:51:40.216Z,10.30
2023-02-24T09:52:39.189Z,9.90
2023-02-24T09:53:41.443Z,10.40
2023-02-24T09:54:39.250Z,10.10
2023-02-24T09:55:39.152Z,9.50
2023-02-24T09:56:39.161Z,10.00
2023-02-24T09:57:39.161Z,7.80
2023-02-24T09:58:44.005Z,11.00
2023-02-24T09:59:40.141Z,10.90
2023-02-24T10:00:39.215Z,9.20
2023-02-24T10:01:39.129Z,11.10
2023-02-24T10:02:39.144Z,11.60
2023-02-24T10:03:39.062Z,12.70
2023-02-24T10:04:39.062Z,13.50
2023-02-24T10:05:39.110Z,11.50
2023-02-24T10:06:39.050Z,12.90
2023-02-24T10:07:39.012Z,10.80
2023-02-24T10:08:39.004Z,10.30
2023-02-24T10:09:39.016Z,12.30
2023-02-24T10:10:39.002Z,10.00
2023-02-24T10:11:38.972Z,9.40
2023-02-24T10:12:38.955Z,11.70
2023-02-24T10:13:38.965Z,10.60
2023-02-24T10:14:43.852Z,10.70
2023-02-24T10:15:39.997Z,11.30
2023-02-24T10:16:38.991Z,9.80
2023-02-24T10:17:38.914Z,11.30
2023-02-24T10:18:38.899Z,9.70
2023-02-24T10:19:38.876Z,15.70
2023-02-24T10:20:38.963Z,10.20
2023-02-24T10:21:38.880Z,12.80
2023-02-24T10:22:38.841Z,10.50
2023-02-24T10:23:38.865Z,10.90
2023-02-24T10:24:38.833Z,9.50
2023-02-24T10:25:38.906Z,11.50
2023-02-24T10:26:40.270Z,9.60
2023-02-24T10:27:38.808Z,10.70
2023-02-24T10:28:38.788Z,11.20
2023-02-24T10:29:38.785Z,10.60
2023-02-24T10:30:38.979Z,10.30
2023-02-24T10:31:38.940Z,12.30
2023-02-24T10:32:38.784Z,11.10
2023-02-24T10:33:38.725Z,11.20
2023-02-24T10:34:38.698Z,9.90
2023-02-24T10:35:38.715Z,13.80
2023-02-24T10:36:38.703Z,15.00
2023-02-24T10:37:38.668Z,9.90
2023-02-24T10:38:38.688Z,10.30
2023-02-24T10:39:38.674Z,11.30
2023-02-24T10:40:38.639Z,11.20
2023-02-24T10:41:38.663Z,13.10
2023-02-24T10:42:38.615Z,10.30
2023-02-24T10:43:38.723Z,11.70
2023-02-24T10:44:38.632Z,12.90
2023-02-24T10:45:38.594Z,12.80
2023-02-24T10:46:42.122Z,7.90
2023-02-24T10:47:38.570Z,11.70
2023-02-24T10:48:41.762Z,10.00
2023-02-24T10:49:38.530Z,12.20
2023-02-24T10:50:41.416Z,12.20
2023-02-24T10:51:39.510Z,13.50
2023-02-24T10:52:38.521Z,12.90
2023-02-24T10:53:39.259Z,11.70
2023-02-24T10:54:38.506Z,11.00
2023-02-24T10:55:38.461Z,12.40
2023-02-24T10:56:38.467Z,11.60
2023-02-24T10:57:47.494Z,11.20
2023-02-24T10:58:39.508Z,12.20
2023-02-24T10:59:38.501Z,14.30
2023-02-24T11:00:38.413Z,13.70
2023-02-24T11:01:38.474Z,11.30
2023-02-24T11:02:38.466Z,11.80
2023-02-24T11:03:38.360Z,11.20
2023-02-24T11:04:38.384Z,12.20
2023-02-24T11:05:38.738Z,11.80
2023-02-24T11:06:38.349Z,9.40
2023-02-24T11:07:38.341Z,10.70
2023-02-24T11:08:38.318Z,8.90
2023-02-24T11:09:38.296Z,11.20
2023-02-24T11:10:38.308Z,14.60
2023-02-24T11:11:38.286Z,10.60
2023-02-24T11:12:38.322Z,12.00
2023-02-24T11:13:38.280Z,13.90
2023-02-24T11:14:38.260Z,12.60
2023-02-24T11:15:38.268Z,11.80
2023-02-24T11:16:38.276Z,10.30
2023-02-24T11:17:38.277Z,11.10
2023-02-24T11:18:38.250Z,9.80
2023-02-24T11:19:38.188Z,12.40
2023-02-24T11:20:48.642Z,9.60
2023-02-24T11:21:39.174Z,12.60
2023-02-24T11:22:38.143Z,11.60
2023-02-24T11:23:38.169Z,10.70
2023-02-24T11:24:38.152Z,11.20
2023-02-24T11:25:38.112Z,10.60
2023-02-24T11:26:38.116Z,13.80
2023-02-24T11:27:38.092Z,12.60
2023-02-24T11:28:38.088Z,14.00
2023-02-24T11:29:38.092Z,11.70
2023-02-24T11:30:38.195Z,8.80
2023-02-24T11:31:38.228Z,13.60
2023-02-24T11:32:38.233Z,11.90
2023-02-24T11:33:38.027Z,12.70
2023-02-24T11:34:38.032Z,14.70
2023-02-24T11:35:38.040Z,17.20
2023-02-24T11:36:38.025Z,11.90
2023-02-24T11:37:38.016Z,13.90
2023-02-24T11:38:37.978Z,12.80
2023-02-24T11:39:37.983Z,13.60
2023-02-24T11:40:37.954Z,12.90
2023-02-24T11:41:37.964Z,13.70
2023-02-24T11:42:37.944Z,11.20
2023-02-24T11:43:37.930Z,11.90
2023-02-24T11:44:37.886Z,13.90
2023-02-24T11:45:37.886Z,14.00
2023-02-24T11:46:37.962Z,12.40
2023-02-24T11:47:37.869Z,15.80
2023-02-24T11:48:37.881Z,13.20
2023-02-24T11:49:37.841Z,13.20
2023-02-24T11:50:37.841Z,11.80
2023-02-24T11:51:37.850Z,12.10
2023-02-24T11:52:37.803Z,15.40
2023-02-24T11:53:37.814Z,15.20
2023-02-24T11:54:37.790Z,15.00
2023-02-24T11:55:37.931Z,11.00
2023-02-24T11:56:37.782Z,13.60
2023-02-24T11:57:37.762Z,15.20
2023-02-24T11:58:37.765Z,13.30
2023-02-24T11:59:37.739Z,12.80
2023-02-24T12:00:37.754Z,12.70
2023-02-24T12:01:37.721Z,16.70
2023-02-24T12:02:37.718Z,14.50
2023-02-24T12:03:37.697Z,13.50
2023-02-24T12:04:37.662Z,14.80
2023-02-24T12:05:37.830Z,15.50
2023-02-24T12:06:37.658Z,13.10
2023-02-24T12:07:37.631Z,14.20
2023-02-24T12:08:37.645Z,12.70
2023-02-24T12:09:37.601Z,13.10
2023-02-24T12:10:37.653Z,11.40
2023-02-24T12:11:37.585Z,11.90
2023-02-24T12:12:37.583Z,12.20
2023-02-24T12:13:37.556Z,10.40
2023-02-24T12:14:37.541Z,16.90
2023-02-24T12:15:37.574Z,11.00
2023-02-24T12:16:37.597Z,13.60
2023-02-24T12:17:37.525Z,14.00
2023-02-24T12:18:37.539Z,13.50
2023-02-24T12:19:37.502Z,10.20
2023-02-24T12:20:37.509Z,14.50
2023-02-24T12:21:37.496Z,14.40
2023-02-24T12:22:37.453Z,14.00
2023-02-24T12:23:37.476Z,10.80
2023-02-24T12:24:37.428Z,10.10
2023-02-24T12:25:37.418Z,9.60
2023-02-24T12:26:37.403Z,10.90
2023-02-24T12:27:37.418Z,8.30
2023-02-24T12:28:37.386Z,10.20
2023-02-24T12:29:37.372Z,7.70
2023-02-24T12:30:39.087Z,9.60
2023-02-24T12:31:37.453Z,12.60
2023-02-24T12:32:37.760Z,8.60
2023-02-24T12:33:37.349Z,8.70
2023-02-24T12:34:37.336Z,7.70
2023-02-24T12:35:37.304Z,8.00
2023-02-24T12:36:37.293Z,9.20
2023-02-24T12:37:37.296Z,9.10
2023-02-24T12:38:37.285Z,8.10
2023-02-24T12:39:37.256Z,9.50
2023-02-24T12:40:37.244Z,8.00
2023-02-24T12:41:37.509Z,7.90
2023-02-24T12:42:37.213Z,9.30
2023-02-24T12:43:37.208Z,7.70
2023-02-24T12:44:37.214Z,11.00
2023-02-24T12:45:37.253Z,10.00
2023-02-24T12:46:37.183Z,8.90
2023-02-24T12:47:37.184Z,6.50
2023-02-24T12:48:37.184Z,9.30
2023-02-24T12:49:37.204Z,6.80
2023-02-24T12:50:37.153Z,6.90
2023-02-24T12:51:37.142Z,8.90
2023-02-24T12:52:37.103Z,6.20
2023-02-24T12:53:37.082Z,7.80
2023-02-24T12:54:37.094Z,9.50